sensor_id;sensor_type;location;lat;lon;timestamp;P1;durP1;ratioP1;P2;durP2;ratioP2
16480;SDS011;44634;54.110;12.138;2023-04-29T00:00:06;8.23;;;5.67;;
16480;SDS011;44634;54.110;12.138;2023-04-29T00:02:35;7.73;;;5.60;;
16480;SDS011;44634;54.110;12.138;2023-04-29T00:05:03;5.80;;;5.10;;
16480;SDS011;44634;54.110;12.138;2023-04-29T00:07:32;7.03;;;5.43;;
16480;SDS011;44634;54.110;12.138;2023-04-29T00:10:01;6.50;;;5.53;;
16480;SDS011;44634;54.110;12.138;2023-04-29T00:12:29;8.07;;;5.43;;
16480;SDS011;44634;54.110;12.138;2023-04-29T00:14:58;8.73;;;5.13;;
16480;SDS011;44634;54.110;12.138;2023-04-29T00:17:29;5.93;;;5.40;;
16480;SDS011;44634;54.110;12.138;2023-04-29T00:19:57;7.20;;;5.50;;
16480;SDS011;44634;54.110;12.138;2023-04-29T00:22:25;8.70;;;5.00;;
16480;SDS011;44634;54.110;12.138;2023-04-29T00:24:53;8.50;;;5.83;;
16480;SDS011;44634;54.110;12.138;2023-04-29T00:27:20;6.77;;;5.60;;
16480;SDS011;44634;54.110;12.138;2023-04-29T00:29:48;11.40;;;5.80;;
16480;SDS011;44634;54.110;12.138;2023-04-29T00:32:16;6.30;;;5.60;;
16480;SDS011;44634;54.110;12.138;2023-04-29T00:34:45;6.87;;;5.80;;
16480;SDS011;44634;54.110;12.138;2023-04-29T00:37:13;8.90;;;5.30;;
16480;SDS011;44634;54.110;12.138;2023-04-29T00:39:41;9.90;;;6.17;;
16480;SDS011;44634;54.110;12.138;2023-04-29T00:42:09;10.33;;;6.13;;
16480;SDS011;44634;54.110;12.138;2023-04-29T00:44:38;7.00;;;5.97;;
16480;SDS011;44634;54.110;12.138;2023-04-29T00:47:06;7.53;;;5.73;;
16480;SDS011;44634;54.110;12.138;2023-04-29T00:49:36;9.50;;;5.77;;
16480;SDS011;44634;54.110;12.138;2023-04-29T00:52:06;11.17;;;6.17;;
16480;SDS011;44634;54.110;12.138;2023-04-29T00:54:34;7.77;;;6.03;;
16480;SDS011;44634;54.110;12.138;2023-04-29T00:57:03;9.33;;;6.00;;
16480;SDS011;44634;54.110;12.138;2023-04-29T00:59:32;10.93;;;6.57;;
16480;SDS011;44634;54.110;12.138;2023-04-29T01:02:00;10.03;;;6.50;;
16480;SDS011;44634;54.110;12.138;2023-04-29T01:04:29;10.03;;;6.83;;
16480;SDS011;44634;54.110;12.138;2023-04-29T01:06:58;9.33;;;6.33;;
16480;SDS011;44634;54.110;12.138;2023-04-29T01:09:37;10.70;;;6.90;;
16480;SDS011;44634;54.110;12.138;2023-04-29T01:12:14;9.33;;;6.93;;
16480;SDS011;44634;54.110;12.138;2023-04-29T01:14:51;12.43;;;7.13;;
16480;SDS011;44634;54.110;12.138;2023-04-29T01:17:28;9.90;;;6.87;;
16480;SDS011;44634;54.110;12.138;2023-04-29T01:20:02;9.20;;;7.00;;
16480;SDS011;44634;54.110;12.138;2023-04-29T01:22:33;7.77;;;6.17;;
16480;SDS011;44634;54.110;12.138;2023-04-29T01:25:02;13.77;;;7.40;;
16480;SDS011;44634;54.110;12.138;2023-04-29T01:27:32;12.80;;;7.17;;
16480;SDS011;44634;54.110;12.138;2023-04-29T01:30:06;9.53;;;6.73;;
16480;SDS011;44634;54.110;12.138;2023-04-29T01:32:45;8.87;;;6.27;;
16480;SDS011;44634;54.110;12.138;2023-04-29T01:35:24;9.60;;;6.90;;
16480;SDS011;44634;54.110;12.138;2023-04-29T01:38:02;12.50;;;7.30;;
16480;SDS011;44634;54.110;12.138;2023-04-29T01:40:42;13.03;;;7.23;;
16480;SDS011;44634;54.110;12.138;2023-04-29T01:43:15;13.33;;;6.77;;
16480;SDS011;44634;54.110;12.138;2023-04-29T01:45:44;11.97;;;7.37;;
16480;SDS011;44634;54.110;12.138;2023-04-29T01:48:12;12.80;;;6.80;;
16480;SDS011;44634;54.110;12.138;2023-04-29T01:50:41;9.47;;;6.57;;
16480;SDS011;44634;54.110;12.138;2023-04-29T01:53:09;10.17;;;7.37;;
16480;SDS011;44634;54.110;12.138;2023-04-29T01:55:36;13.20;;;7.10;;
16480;SDS011;44634;54.110;12.138;2023-04-29T01:58:06;9.47;;;6.67;;
16480;SDS011;44634;54.110;12.138;2023-04-29T02:00:33;9.57;;;7.30;;
16480;SDS011;44634;54.110;12.138;2023-04-29T02:03:01;10.77;;;6.90;;
16480;SDS011;44634;54.110;12.138;2023-04-29T02:05:29;11.17;;;6.97;;
16480;SDS011;44634;54.110;12.138;2023-04-29T02:07:59;9.37;;;6.87;;
16480;SDS011;44634;54.110;12.138;2023-04-29T02:10:27;10.17;;;6.53;;
16480;SDS011;44634;54.110;12.138;2023-04-29T02:12:56;9.70;;;7.23;;
16480;SDS011;44634;54.110;12.138;2023-04-29T02:15:26;11.90;;;7.33;;
16480;SDS011;44634;54.110;12.138;2023-04-29T02:17:54;10.13;;;7.47;;
16480;SDS011;44634;54.110;12.138;2023-04-29T02:20:22;9.60;;;7.17;;
16480;SDS011;44634;54.110;12.138;2023-04-29T02:22:50;10.33;;;6.60;;
16480;SDS011;44634;54.110;12.138;2023-04-29T02:25:17;10.30;;;7.07;;
16480;SDS011;44634;54.110;12.138;2023-04-29T02:27:45;8.63;;;6.33;;
16480;SDS011;44634;54.110;12.138;2023-04-29T02:30:13;11.00;;;7.93;;
16480;SDS011;44634;54.110;12.138;2023-04-29T02:32:42;10.13;;;6.70;;
16480;SDS011;44634;54.110;12.138;2023-04-29T02:35:10;7.40;;;6.53;;
16480;SDS011;44634;54.110;12.138;2023-04-29T02:37:37;7.80;;;6.40;;
16480;SDS011;44634;54.110;12.138;2023-04-29T02:40:06;8.47;;;6.70;;
16480;SDS011;44634;54.110;12.138;2023-04-29T02:42:34;10.40;;;7.00;;
16480;SDS011;44634;54.110;12.138;2023-04-29T02:45:03;10.10;;;6.90;;
16480;SDS011;44634;54.110;12.138;2023-04-29T02:47:31;10.53;;;7.10;;
16480;SDS011;44634;54.110;12.138;2023-04-29T02:50:01;7.27;;;6.30;;
16480;SDS011;44634;54.110;12.138;2023-04-29T02:52:30;7.70;;;6.30;;
16480;SDS011;44634;54.110;12.138;2023-04-29T02:54:57;10.43;;;7.40;;
16480;SDS011;44634;54.110;12.138;2023-04-29T02:57:25;9.37;;;6.37;;
16480;SDS011;44634;54.110;12.138;2023-04-29T02:59:54;9.47;;;6.83;;
16480;SDS011;44634;54.110;12.138;2023-04-29T03:02:22;8.00;;;6.17;;
16480;SDS011;44634;54.110;12.138;2023-04-29T03:04:50;8.27;;;6.33;;
16480;SDS011;44634;54.110;12.138;2023-04-29T03:07:19;13.27;;;7.13;;
16480;SDS011;44634;54.110;12.138;2023-04-29T03:09:47;11.87;;;7.13;;
16480;SDS011;44634;54.110;12.138;2023-04-29T03:12:16;10.80;;;7.07;;
16480;SDS011;44634;54.110;12.138;2023-04-29T03:14:43;10.03;;;6.80;;
16480;SDS011;44634;54.110;12.138;2023-04-29T03:17:11;8.83;;;6.73;;
16480;SDS011;44634;54.110;12.138;2023-04-29T03:19:39;10.23;;;6.53;;
16480;SDS011;44634;54.110;12.138;2023-04-29T03:22:07;9.20;;;6.83;;
16480;SDS011;44634;54.110;12.138;2023-04-29T03:24:37;10.30;;;7.03;;
16480;SDS011;44634;54.110;12.138;2023-04-29T03:27:05;12.10;;;7.50;;
16480;SDS011;44634;54.110;12.138;2023-04-29T03:29:32;10.20;;;6.77;;
16480;SDS011;44634;54.110;12.138;2023-04-29T03:32:00;10.03;;;7.20;;
16480;SDS011;44634;54.110;12.138;2023-04-29T03:34:28;10.93;;;7.00;;
16480;SDS011;44634;54.110;12.138;2023-04-29T03:36:56;9.60;;;6.93;;
16480;SDS011;44634;54.110;12.138;2023-04-29T03:39:24;6.90;;;6.20;;
16480;SDS011;44634;54.110;12.138;2023-04-29T03:41:54;13.40;;;6.37;;
16480;SDS011;44634;54.110;12.138;2023-04-29T03:44:22;9.50;;;7.00;;
16480;SDS011;44634;54.110;12.138;2023-04-29T03:46:50;13.10;;;6.77;;
16480;SDS011;44634;54.110;12.138;2023-04-29T03:49:18;8.80;;;6.33;;
16480;SDS011;44634;54.110;12.138;2023-04-29T03:51:45;7.93;;;6.60;;
16480;SDS011;44634;54.110;12.138;2023-04-29T03:54:13;8.43;;;6.00;;
16480;SDS011;44634;54.110;12.138;2023-04-29T03:56:41;7.70;;;6.10;;
16480;SDS011;44634;54.110;12.138;2023-04-29T03:59:10;9.33;;;6.47;;
16480;SDS011;44634;54.110;12.138;2023-04-29T04:01:38;11.13;;;6.87;;
16480;SDS011;44634;54.110;12.138;2023-04-29T04:04:06;8.40;;;6.03;;
16480;SDS011;44634;54.110;12.138;2023-04-29T04:06:34;11.73;;;7.10;;
16480;SDS011;44634;54.110;12.138;2023-04-29T04:09:02;10.00;;;6.27;;
16480;SDS011;44634;54.110;12.138;2023-04-29T04:11:30;10.17;;;6.57;;
16480;SDS011;44634;54.110;12.138;2023-04-29T04:13:57;8.63;;;5.67;;
16480;SDS011;44634;54.110;12.138;2023-04-29T04:16:27;10.13;;;6.60;;
16480;SDS011;44634;54.110;12.138;2023-04-29T04:18:54;9.83;;;6.27;;
16480;SDS011;44634;54.110;12.138;2023-04-29T04:21:22;9.63;;;5.93;;
16480;SDS011;44634;54.110;12.138;2023-04-29T04:23:50;8.33;;;6.30;;
16480;SDS011;44634;54.110;12.138;2023-04-29T04:26:18;8.43;;;6.13;;
16480;SDS011;44634;54.110;12.138;2023-04-29T04:28:46;12.63;;;5.83;;
16480;SDS011;44634;54.110;12.138;2023-04-29T04:31:14;8.00;;;5.90;;
16480;SDS011;44634;54.110;12.138;2023-04-29T04:33:43;9.47;;;6.17;;
16480;SDS011;44634;54.110;12.138;2023-04-29T04:36:11;8.97;;;6.33;;
16480;SDS011;44634;54.110;12.138;2023-04-29T04:38:39;8.10;;;6.07;;
16480;SDS011;44634;54.110;12.138;2023-04-29T04:41:07;8.23;;;5.90;;
16480;SDS011;44634;54.110;12.138;2023-04-29T04:43:34;9.23;;;5.93;;
16480;SDS011;44634;54.110;12.138;2023-04-29T04:46:08;8.37;;;6.57;;
16480;SDS011;44634;54.110;12.138;2023-04-29T04:48:37;8.83;;;6.70;;
16480;SDS011;44634;54.110;12.138;2023-04-29T04:51:09;9.00;;;5.80;;
16480;SDS011;44634;54.110;12.138;2023-04-29T04:53:37;7.07;;;6.33;;
16480;SDS011;44634;54.110;12.138;2023-04-29T04:56:05;8.57;;;6.63;;
16480;SDS011;44634;54.110;12.138;2023-04-29T04:58:34;8.07;;;5.67;;
16480;SDS011;44634;54.110;12.138;2023-04-29T05:01:01;8.80;;;6.20;;
16480;SDS011;44634;54.110;12.138;2023-04-29T05:03:29;12.30;;;6.40;;
16480;SDS011;44634;54.110;12.138;2023-04-29T05:05:58;7.73;;;6.20;;
16480;SDS011;44634;54.110;12.138;2023-04-29T05:08:28;8.53;;;6.13;;
16480;SDS011;44634;54.110;12.138;2023-04-29T05:10:55;11.80;;;6.20;;
16480;SDS011;44634;54.110;12.138;2023-04-29T05:13:23;8.50;;;5.70;;
16480;SDS011;44634;54.110;12.138;2023-04-29T05:15:52;6.57;;;5.50;;
16480;SDS011;44634;54.110;12.138;2023-04-29T05:18:19;9.53;;;5.73;;
16480;SDS011;44634;54.110;12.138;2023-04-29T05:20:47;8.47;;;5.37;;
16480;SDS011;44634;54.110;12.138;2023-04-29T05:23:15;10.03;;;5.13;;
16480;SDS011;44634;54.110;12.138;2023-04-29T05:25:44;6.77;;;4.97;;
16480;SDS011;44634;54.110;12.138;2023-04-29T05:28:12;7.43;;;5.00;;
16480;SDS011;44634;54.110;12.138;2023-04-29T05:30:40;7.60;;;5.13;;
16480;SDS011;44634;54.110;12.138;2023-04-29T05:33:09;7.13;;;5.63;;
16480;SDS011;44634;54.110;12.138;2023-04-29T05:35:37;6.10;;;5.40;;
16480;SDS011;44634;54.110;12.138;2023-04-29T05:38:05;6.70;;;5.43;;
16480;SDS011;44634;54.110;12.138;2023-04-29T05:40:32;8.17;;;5.00;;
16480;SDS011;44634;54.110;12.138;2023-04-29T05:43:01;9.63;;;4.63;;
16480;SDS011;44634;54.110;12.138;2023-04-29T05:45:29;10.53;;;5.37;;
16480;SDS011;44634;54.110;12.138;2023-04-29T05:47:57;8.10;;;5.27;;
16480;SDS011;44634;54.110;12.138;2023-04-29T05:50:25;5.37;;;4.50;;
16480;SDS011;44634;54.110;12.138;2023-04-29T05:52:52;8.13;;;5.33;;
16480;SDS011;44634;54.110;12.138;2023-04-29T05:55:22;8.07;;;4.97;;
16480;SDS011;44634;54.110;12.138;2023-04-29T05:57:50;8.97;;;5.90;;
16480;SDS011;44634;54.110;12.138;2023-04-29T06:00:19;10.47;;;6.40;;
16480;SDS011;44634;54.110;12.138;2023-04-29T06:02:47;10.17;;;5.87;;
16480;SDS011;44634;54.110;12.138;2023-04-29T06:05:24;9.90;;;5.63;;
16480;SDS011;44634;54.110;12.138;2023-04-29T06:07:53;11.43;;;6.77;;
16480;SDS011;44634;54.110;12.138;2023-04-29T06:10:21;9.70;;;5.77;;
16480;SDS011;44634;54.110;12.138;2023-04-29T06:12:49;7.43;;;5.53;;
16480;SDS011;44634;54.110;12.138;2023-04-29T06:15:18;23.20;;;7.43;;
16480;SDS011;44634;54.110;12.138;2023-04-29T06:17:46;10.63;;;5.70;;
16480;SDS011;44634;54.110;12.138;2023-04-29T06:20:14;10.93;;;5.17;;
16480;SDS011;44634;54.110;12.138;2023-04-29T06:22:43;14.33;;;9.73;;
16480;SDS011;44634;54.110;12.138;2023-04-29T06:25:11;13.10;;;7.97;;
16480;SDS011;44634;54.110;12.138;2023-04-29T06:27:39;8.73;;;5.63;;
16480;SDS011;44634;54.110;12.138;2023-04-29T06:30:07;19.00;;;8.70;;
16480;SDS011;44634;54.110;12.138;2023-04-29T06:32:38;8.67;;;5.97;;
16480;SDS011;44634;54.110;12.138;2023-04-29T06:35:06;8.67;;;6.13;;
16480;SDS011;44634;54.110;12.138;2023-04-29T06:37:34;8.03;;;5.43;;
16480;SDS011;44634;54.110;12.138;2023-04-29T06:40:04;10.20;;;5.70;;
16480;SDS011;44634;54.110;12.138;2023-04-29T06:42:32;13.90;;;5.77;;
16480;SDS011;44634;54.110;12.138;2023-04-29T06:45:00;12.37;;;5.77;;
16480;SDS011;44634;54.110;12.138;2023-04-29T06:47:28;8.73;;;5.17;;
16480;SDS011;44634;54.110;12.138;2023-04-29T06:49:57;8.30;;;5.17;;
16480;SDS011;44634;54.110;12.138;2023-04-29T06:52:25;7.17;;;5.23;;
16480;SDS011;44634;54.110;12.138;2023-04-29T06:54:53;8.20;;;5.57;;
16480;SDS011;44634;54.110;12.138;2023-04-29T06:57:20;12.17;;;5.60;;
16480;SDS011;44634;54.110;12.138;2023-04-29T06:59:48;9.80;;;5.83;;
16480;SDS011;44634;54.110;12.138;2023-04-29T07:02:16;8.03;;;4.70;;
16480;SDS011;44634;54.110;12.138;2023-04-29T07:04:44;10.43;;;5.13;;
16480;SDS011;44634;54.110;12.138;2023-04-29T07:07:15;8.57;;;5.20;;
16480;SDS011;44634;54.110;12.138;2023-04-29T07:09:43;8.00;;;5.10;;
16480;SDS011;44634;54.110;12.138;2023-04-29T07:12:11;6.90;;;4.57;;
16480;SDS011;44634;54.110;12.138;2023-04-29T07:14:38;9.77;;;4.60;;
16480;SDS011;44634;54.110;12.138;2023-04-29T07:17:07;10.47;;;5.10;;
16480;SDS011;44634;54.110;12.138;2023-04-29T07:19:37;8.63;;;5.60;;
16480;SDS011;44634;54.110;12.138;2023-04-29T07:22:05;9.40;;;5.10;;
16480;SDS011;44634;54.110;12.138;2023-04-29T07:24:34;11.43;;;6.93;;
16480;SDS011;44634;54.110;12.138;2023-04-29T07:27:02;10.40;;;6.13;;
16480;SDS011;44634;54.110;12.138;2023-04-29T07:29:30;8.00;;;5.07;;
16480;SDS011;44634;54.110;12.138;2023-04-29T07:31:59;7.57;;;4.67;;
16480;SDS011;44634;54.110;12.138;2023-04-29T07:34:27;5.83;;;5.00;;
16480;SDS011;44634;54.110;12.138;2023-04-29T07:36:54;8.57;;;5.83;;
16480;SDS011;44634;54.110;12.138;2023-04-29T07:39:22;11.63;;;5.13;;
16480;SDS011;44634;54.110;12.138;2023-04-29T07:41:52;8.33;;;5.57;;
16480;SDS011;44634;54.110;12.138;2023-04-29T07:44:19;8.43;;;5.10;;
16480;SDS011;44634;54.110;12.138;2023-04-29T07:46:47;7.03;;;5.33;;
16480;SDS011;44634;54.110;12.138;2023-04-29T07:49:15;10.00;;;4.27;;
16480;SDS011;44634;54.110;12.138;2023-04-29T07:51:43;7.47;;;4.93;;
16480;SDS011;44634;54.110;12.138;2023-04-29T07:54:11;8.70;;;5.20;;
16480;SDS011;44634;54.110;12.138;2023-04-29T07:56:38;5.73;;;4.53;;
16480;SDS011;44634;54.110;12.138;2023-04-29T07:59:07;7.57;;;4.87;;
16480;SDS011;44634;54.110;12.138;2023-04-29T08:01:35;6.83;;;4.90;;
16480;SDS011;44634;54.110;12.138;2023-04-29T08:04:03;8.47;;;5.07;;
16480;SDS011;44634;54.110;12.138;2023-04-29T08:06:33;9.67;;;5.20;;
16480;SDS011;44634;54.110;12.138;2023-04-29T08:09:01;10.50;;;5.17;;
16480;SDS011;44634;54.110;12.138;2023-04-29T08:11:29;7.27;;;5.23;;
16480;SDS011;44634;54.110;12.138;2023-04-29T08:13:57;6.40;;;5.27;;
16480;SDS011;44634;54.110;12.138;2023-04-29T08:16:26;8.40;;;5.80;;
16480;SDS011;44634;54.110;12.138;2023-04-29T08:18:54;10.97;;;6.67;;
16480;SDS011;44634;54.110;12.138;2023-04-29T08:21:22;9.47;;;7.40;;
16480;SDS011;44634;54.110;12.138;2023-04-29T08:23:50;14.50;;;6.30;;
16480;SDS011;44634;54.110;12.138;2023-04-29T08:26:19;7.47;;;5.87;;
16480;SDS011;44634;54.110;12.138;2023-04-29T08:28:49;9.97;;;7.30;;
16480;SDS011;44634;54.110;12.138;2023-04-29T08:31:17;9.73;;;6.80;;
16480;SDS011;44634;54.110;12.138;2023-04-29T08:33:46;10.03;;;6.37;;
16480;SDS011;44634;54.110;12.138;2023-04-29T08:36:14;10.07;;;5.70;;
16480;SDS011;44634;54.110;12.138;2023-04-29T08:38:42;10.37;;;6.27;;
16480;SDS011;44634;54.110;12.138;2023-04-29T08:41:09;9.13;;;6.30;;
16480;SDS011;44634;54.110;12.138;2023-04-29T08:43:40;9.30;;;6.27;;
16480;SDS011;44634;54.110;12.138;2023-04-29T08:46:08;10.60;;;6.20;;
16480;SDS011;44634;54.110;12.138;2023-04-29T08:48:37;9.40;;;6.23;;
16480;SDS011;44634;54.110;12.138;2023-04-29T08:51:12;9.80;;;6.10;;
16480;SDS011;44634;54.110;12.138;2023-04-29T08:53:40;9.97;;;5.77;;
16480;SDS011;44634;54.110;12.138;2023-04-29T08:56:08;8.47;;;4.93;;
16480;SDS011;44634;54.110;12.138;2023-04-29T08:58:42;8.37;;;5.33;;
16480;SDS011;44634;54.110;12.138;2023-04-29T09:01:11;10.63;;;6.30;;
16480;SDS011;44634;54.110;12.138;2023-04-29T09:03:42;7.37;;;6.17;;
16480;SDS011;44634;54.110;12.138;2023-04-29T09:06:17;9.40;;;6.73;;
16480;SDS011;44634;54.110;12.138;2023-04-29T09:08:46;7.50;;;5.77;;
16480;SDS011;44634;54.110;12.138;2023-04-29T09:11:14;7.20;;;6.00;;
16480;SDS011;44634;54.110;12.138;2023-04-29T09:13:43;7.53;;;5.80;;
16480;SDS011;44634;54.110;12.138;2023-04-29T09:16:11;9.03;;;5.83;;
16480;SDS011;44634;54.110;12.138;2023-04-29T09:18:43;7.90;;;6.00;;
16480;SDS011;44634;54.110;12.138;2023-04-29T09:21:12;16.90;;;10.23;;
16480;SDS011;44634;54.110;12.138;2023-04-29T09:23:42;7.77;;;6.33;;
16480;SDS011;44634;54.110;12.138;2023-04-29T09:26:11;8.40;;;5.57;;
16480;SDS011;44634;54.110;12.138;2023-04-29T09:28:38;7.87;;;6.13;;
16480;SDS011;44634;54.110;12.138;2023-04-29T09:31:09;5.93;;;5.13;;
16480;SDS011;44634;54.110;12.138;2023-04-29T09:33:50;8.13;;;5.90;;
16480;SDS011;44634;54.110;12.138;2023-04-29T09:39:08;7.50;;;5.90;;
16480;SDS011;44634;54.110;12.138;2023-04-29T09:41:41;6.87;;;5.43;;
16480;SDS011;44634;54.110;12.138;2023-04-29T09:44:23;8.03;;;5.30;;
16480;SDS011;44634;54.110;12.138;2023-04-29T09:46:54;7.40;;;5.50;;
16480;SDS011;44634;54.110;12.138;2023-04-29T09:49:23;8.23;;;5.40;;
16480;SDS011;44634;54.110;12.138;2023-04-29T09:51:54;6.40;;;5.00;;
16480;SDS011;44634;54.110;12.138;2023-04-29T09:54:25;7.70;;;5.00;;
16480;SDS011;44634;54.110;12.138;2023-04-29T09:56:55;5.97;;;5.37;;
16480;SDS011;44634;54.110;12.138;2023-04-29T09:59:24;4.93;;;4.43;;
16480;SDS011;44634;54.110;12.138;2023-04-29T10:01:53;9.03;;;5.17;;
16480;SDS011;44634;54.110;12.138;2023-04-29T10:04:22;5.37;;;4.83;;
16480;SDS011;44634;54.110;12.138;2023-04-29T10:06:52;6.47;;;4.97;;
16480;SDS011;44634;54.110;12.138;2023-04-29T10:09:22;5.87;;;4.93;;
16480;SDS011;44634;54.110;12.138;2023-04-29T10:11:51;5.10;;;4.70;;
16480;SDS011;44634;54.110;12.138;2023-04-29T10:14:20;6.50;;;5.07;;
16480;SDS011;44634;54.110;12.138;2023-04-29T10:16:53;6.07;;;5.20;;
16480;SDS011;44634;54.110;12.138;2023-04-29T10:19:27;5.87;;;5.33;;
16480;SDS011;44634;54.110;12.138;2023-04-29T10:22:04;5.67;;;5.00;;
16480;SDS011;44634;54.110;12.138;2023-04-29T10:24:36;5.33;;;4.90;;
16480;SDS011;44634;54.110;12.138;2023-04-29T10:27:07;7.03;;;5.30;;
16480;SDS011;44634;54.110;12.138;2023-04-29T10:29:37;9.03;;;6.37;;
16480;SDS011;44634;54.110;12.138;2023-04-29T10:32:06;9.20;;;5.83;;
16480;SDS011;44634;54.110;12.138;2023-04-29T10:34:36;5.33;;;4.87;;
16480;SDS011;44634;54.110;12.138;2023-04-29T10:37:06;5.10;;;4.60;;
16480;SDS011;44634;54.110;12.138;2023-04-29T10:39:38;7.50;;;4.50;;
16480;SDS011;44634;54.110;12.138;2023-04-29T10:42:19;5.23;;;4.67;;
16480;SDS011;44634;54.110;12.138;2023-04-29T10:53:29;6.93;;;5.40;;
16480;SDS011;44634;54.110;12.138;2023-04-29T10:55:58;6.60;;;4.83;;
16480;SDS011;44634;54.110;12.138;2023-04-29T10:58:35;5.73;;;5.13;;
16480;SDS011;44634;54.110;12.138;2023-04-29T11:01:13;6.87;;;4.90;;
16480;SDS011;44634;54.110;12.138;2023-04-29T11:03:45;5.83;;;5.33;;
16480;SDS011;44634;54.110;12.138;2023-04-29T11:06:21;6.40;;;5.90;;
16480;SDS011;44634;54.110;12.138;2023-04-29T11:08:59;6.20;;;5.37;;
16480;SDS011;44634;54.110;12.138;2023-04-29T11:11:45;6.13;;;5.07;;
16480;SDS011;44634;54.110;12.138;2023-04-29T11:14:33;11.63;;;8.53;;
16480;SDS011;44634;54.110;12.138;2023-04-29T11:17:06;5.93;;;5.33;;
16480;SDS011;44634;54.110;12.138;2023-04-29T11:19:36;5.90;;;5.40;;
16480;SDS011;44634;54.110;12.138;2023-04-29T11:22:09;6.37;;;5.27;;
16480;SDS011;44634;54.110;12.138;2023-04-29T11:24:52;7.23;;;6.60;;
16480;SDS011;44634;54.110;12.138;2023-04-29T11:27:22;7.17;;;5.70;;
16480;SDS011;44634;54.110;12.138;2023-04-29T11:29:53;6.30;;;5.30;;
16480;SDS011;44634;54.110;12.138;2023-04-29T11:32:24;6.20;;;5.63;;
16480;SDS011;44634;54.110;12.138;2023-04-29T11:34:52;6.77;;;5.33;;
16480;SDS011;44634;54.110;12.138;2023-04-29T11:37:22;6.13;;;5.47;;
16480;SDS011;44634;54.110;12.138;2023-04-29T11:39:56;6.10;;;5.30;;
16480;SDS011;44634;54.110;12.138;2023-04-29T11:42:25;7.20;;;5.83;;
16480;SDS011;44634;54.110;12.138;2023-04-29T11:44:55;6.27;;;5.77;;
16480;SDS011;44634;54.110;12.138;2023-04-29T11:47:25;6.63;;;5.97;;
16480;SDS011;44634;54.110;12.138;2023-04-29T11:50:00;6.37;;;5.33;;
16480;SDS011;44634;54.110;12.138;2023-04-29T11:52:30;5.57;;;5.07;;
16480;SDS011;44634;54.110;12.138;2023-04-29T11:54:58;6.70;;;6.00;;
16480;SDS011;44634;54.110;12.138;2023-04-29T11:57:26;6.10;;;5.20;;
16480;SDS011;44634;54.110;12.138;2023-04-29T11:59:55;8.77;;;6.97;;
16480;SDS011;44634;54.110;12.138;2023-04-29T12:02:27;8.83;;;5.90;;
16480;SDS011;44634;54.110;12.138;2023-04-29T12:04:56;7.97;;;6.13;;
16480;SDS011;44634;54.110;12.138;2023-04-29T12:07:26;7.33;;;5.57;;
16480;SDS011;44634;54.110;12.138;2023-04-29T12:09:54;9.00;;;6.37;;
16480;SDS011;44634;54.110;12.138;2023-04-29T12:12:23;6.50;;;5.90;;
16480;SDS011;44634;54.110;12.138;2023-04-29T12:14:52;5.90;;;5.40;;
16480;SDS011;44634;54.110;12.138;2023-04-29T12:17:22;9.13;;;5.87;;
16480;SDS011;44634;54.110;12.138;2023-04-29T12:19:50;6.27;;;5.33;;
16480;SDS011;44634;54.110;12.138;2023-04-29T12:22:18;5.93;;;5.43;;
16480;SDS011;44634;54.110;12.138;2023-04-29T12:24:46;6.93;;;5.90;;
16480;SDS011;44634;54.110;12.138;2023-04-29T12:27:16;5.57;;;4.90;;
16480;SDS011;44634;54.110;12.138;2023-04-29T12:29:45;6.57;;;5.27;;
16480;SDS011;44634;54.110;12.138;2023-04-29T12:32:15;5.70;;;5.27;;
16480;SDS011;44634;54.110;12.138;2023-04-29T12:34:45;8.90;;;7.00;;
16480;SDS011;44634;54.110;12.138;2023-04-29T12:37:13;6.73;;;5.70;;
16480;SDS011;44634;54.110;12.138;2023-04-29T12:39:41;9.00;;;6.20;;
16480;SDS011;44634;54.110;12.138;2023-04-29T12:42:13;7.77;;;6.60;;
16480;SDS011;44634;54.110;12.138;2023-04-29T12:44:43;6.10;;;5.50;;
16480;SDS011;44634;54.110;12.138;2023-04-29T12:47:12;6.57;;;5.97;;
16480;SDS011;44634;54.110;12.138;2023-04-29T12:49:41;7.33;;;5.67;;
16480;SDS011;44634;54.110;12.138;2023-04-29T12:52:11;7.30;;;5.90;;
16480;SDS011;44634;54.110;12.138;2023-04-29T12:54:39;7.97;;;5.83;;
16480;SDS011;44634;54.110;12.138;2023-04-29T12:57:09;7.00;;;6.33;;
16480;SDS011;44634;54.110;12.138;2023-04-29T12:59:38;7.17;;;6.20;;
16480;SDS011;44634;54.110;12.138;2023-04-29T13:02:06;6.87;;;6.20;;
16480;SDS011;44634;54.110;12.138;2023-04-29T13:04:34;7.63;;;5.87;;
16480;SDS011;44634;54.110;12.138;2023-04-29T13:07:04;6.43;;;5.87;;
16480;SDS011;44634;54.110;12.138;2023-04-29T13:09:34;7.50;;;5.40;;
16480;SDS011;44634;54.110;12.138;2023-04-29T13:12:03;7.37;;;5.37;;
16480;SDS011;44634;54.110;12.138;2023-04-29T13:14:34;6.17;;;5.57;;
16480;SDS011;44634;54.110;12.138;2023-04-29T13:17:02;5.17;;;4.77;;
16480;SDS011;44634;54.110;12.138;2023-04-29T13:19:30;6.07;;;5.43;;
16480;SDS011;44634;54.110;12.138;2023-04-29T13:22:16;5.70;;;5.20;;
16480;SDS011;44634;54.110;12.138;2023-04-29T13:24:45;5.77;;;5.27;;
16480;SDS011;44634;54.110;12.138;2023-04-29T13:27:13;5.73;;;4.40;;
16480;SDS011;44634;54.110;12.138;2023-04-29T13:29:41;4.33;;;3.70;;
16480;SDS011;44634;54.110;12.138;2023-04-29T13:32:09;3.30;;;3.10;;
16480;SDS011;44634;54.110;12.138;2023-04-29T13:34:37;2.93;;;2.73;;
16480;SDS011;44634;54.110;12.138;2023-04-29T13:37:08;3.60;;;3.40;;
16480;SDS011;44634;54.110;12.138;2023-04-29T13:39:36;3.67;;;3.30;;
16480;SDS011;44634;54.110;12.138;2023-04-29T13:42:05;3.70;;;3.40;;
16480;SDS011;44634;54.110;12.138;2023-04-29T13:44:34;4.00;;;3.70;;
16480;SDS011;44634;54.110;12.138;2023-04-29T13:47:17;7.57;;;6.27;;
16480;SDS011;44634;54.110;12.138;2023-04-29T13:49:51;5.23;;;4.73;;
16480;SDS011;44634;54.110;12.138;2023-04-29T13:52:39;5.63;;;5.13;;
16480;SDS011;44634;54.110;12.138;2023-04-29T13:55:10;6.77;;;5.70;;
16480;SDS011;44634;54.110;12.138;2023-04-29T13:57:42;7.30;;;6.50;;
16480;SDS011;44634;54.110;12.138;2023-04-29T14:00:30;6.40;;;5.67;;
16480;SDS011;44634;54.110;12.138;2023-04-29T14:03:17;8.83;;;6.23;;
16480;SDS011;44634;54.110;12.138;2023-04-29T14:05:46;7.43;;;5.90;;
16480;SDS011;44634;54.110;12.138;2023-04-29T14:08:13;6.40;;;5.70;;
16480;SDS011;44634;54.110;12.138;2023-04-29T14:10:41;5.60;;;5.00;;
16480;SDS011;44634;54.110;12.138;2023-04-29T14:13:10;7.07;;;6.20;;
16480;SDS011;44634;54.110;12.138;2023-04-29T14:15:38;6.37;;;5.83;;
16480;SDS011;44634;54.110;12.138;2023-04-29T14:18:06;7.73;;;6.37;;
16480;SDS011;44634;54.110;12.138;2023-04-29T14:20:35;7.90;;;6.80;;
16480;SDS011;44634;54.110;12.138;2023-04-29T14:23:02;7.67;;;6.30;;
16480;SDS011;44634;54.110;12.138;2023-04-29T14:25:30;7.23;;;6.63;;
16480;SDS011;44634;54.110;12.138;2023-04-29T14:27:59;7.43;;;6.20;;
16480;SDS011;44634;54.110;12.138;2023-04-29T14:30:28;9.93;;;6.30;;
16480;SDS011;44634;54.110;12.138;2023-04-29T14:32:56;7.10;;;6.33;;
16480;SDS011;44634;54.110;12.138;2023-04-29T14:35:24;7.00;;;6.30;;
16480;SDS011;44634;54.110;12.138;2023-04-29T14:37:51;7.23;;;6.53;;
16480;SDS011;44634;54.110;12.138;2023-04-29T14:40:19;6.70;;;6.10;;
16480;SDS011;44634;54.110;12.138;2023-04-29T14:42:48;6.93;;;6.17;;
16480;SDS011;44634;54.110;12.138;2023-04-29T14:45:16;6.70;;;6.00;;
16480;SDS011;44634;54.110;12.138;2023-04-29T14:47:45;5.97;;;5.40;;
16480;SDS011;44634;54.110;12.138;2023-04-29T14:50:13;6.80;;;6.20;;
16480;SDS011;44634;54.110;12.138;2023-04-29T14:52:41;6.63;;;5.50;;
16480;SDS011;44634;54.110;12.138;2023-04-29T14:55:09;6.40;;;5.27;;